sensor_id;sensor_type;location;lat;lon;timestamp;temperature;humidity
11944;DHT22;6031;50.220;10.122;2022-07-23T00:00:54;22.10;99.90
11944;DHT22;6031;50.220;10.122;2022-07-23T00:03:19;21.90;99.90
11944;DHT22;6031;50.220;10.122;2022-07-23T00:05:45;21.90;99.90
11944;DHT22;6031;50.220;10.122;2022-07-23T00:08:11;21.80;99.90
11944;DHT22;6031;50.220;10.122;2022-07-23T00:10:36;21.70;99.90
11944;DHT22;6031;50.220;10.122;2022-07-23T00:13:02;21.60;99.90
11944;DHT22;6031;50.220;10.122;2022-07-23T00:15:28;21.50;99.90
11944;DHT22;6031;50.220;10.122;2022-07-23T00:17:53;21.50;99.90
11944;DHT22;6031;50.220;10.122;2022-07-23T00:20:19;21.60;99.90
11944;DHT22;6031;50.220;10.122;2022-07-23T00:22:49;21.70;99.90
11944;DHT22;6031;50.220;10.122;2022-07-23T00:25:15;21.60;99.90
11944;DHT22;6031;50.220;10.122;2022-07-23T00:27:40;21.50;99.90
11944;DHT22;6031;50.220;10.122;2022-07-23T00:30:07;21.30;99.90
11944;DHT22;6031;50.220;10.122;2022-07-23T00:32:32;21.20;99.90
11944;DHT22;6031;50.220;10.122;2022-07-23T00:35:09;21.30;99.90
11944;DHT22;6031;50.220;10.122;2022-07-23T00:37:35;21.40;99.90
11944;DHT22;6031;50.220;10.122;2022-07-23T00:40:00;21.40;99.90
11944;DHT22;6031;50.220;10.122;2022-07-23T00:42:26;21.20;99.90
11944;DHT22;6031;50.220;10.122;2022-07-23T00:44:51;21.10;99.90
11944;DHT22;6031;50.220;10.122;2022-07-23T00:47:17;21.10;99.90
11944;DHT22;6031;50.220;10.122;2022-07-23T00:49:42;21.00;99.90
11944;DHT22;6031;50.220;10.122;2022-07-23T00:52:08;20.90;99.90
11944;DHT22;6031;50.220;10.122;2022-07-23T00:54:33;20.80;99.90
11944;DHT22;6031;50.220;10.122;2022-07-23T00:56:59;20.70;99.90
11944;DHT22;6031;50.220;10.122;2022-07-23T00:59:24;20.60;99.90
11944;DHT22;6031;50.220;10.122;2022-07-23T01:01:50;20.60;99.90
11944;DHT22;6031;50.220;10.122;2022-07-23T01:04:16;20.70;99.90
11944;DHT22;6031;50.220;10.122;2022-07-23T01:06:43;20.70;99.90
11944;DHT22;6031;50.220;10.122;2022-07-23T01:09:09;20.70;99.90
11944;DHT22;6031;50.220;10.122;2022-07-23T01:11:36;20.80;99.90
11944;DHT22;6031;50.220;10.122;2022-07-23T01:14:13;21.00;99.90
11944;DHT22;6031;50.220;10.122;2022-07-23T01:16:40;21.00;99.90
11944;DHT22;6031;50.220;10.122;2022-07-23T01:19:05;21.00;99.90
11944;DHT22;6031;50.220;10.122;2022-07-23T01:21:34;20.90;99.90
11944;DHT22;6031;50.220;10.122;2022-07-23T01:24:00;20.90;99.90
11944;DHT22;6031;50.220;10.122;2022-07-23T01:26:26;20.90;99.90
11944;DHT22;6031;50.220;10.122;2022-07-23T01:28:52;20.80;99.90
11944;DHT22;6031;50.220;10.122;2022-07-23T01:31:17;20.70;99.90
11944;DHT22;6031;50.220;10.122;2022-07-23T01:33:44;20.60;99.90
11944;DHT22;6031;50.220;10.122;2022-07-23T01:36:10;20.50;99.90
11944;DHT22;6031;50.220;10.122;2022-07-23T01:38:35;20.50;99.90
11944;DHT22;6031;50.220;10.122;2022-07-23T01:41:01;20.50;99.90
11944;DHT22;6031;50.220;10.122;2022-07-23T01:43:26;20.40;99.90
11944;DHT22;6031;50.220;10.122;2022-07-23T01:45:52;20.40;99.90
11944;DHT22;6031;50.220;10.122;2022-07-23T01:48:17;20.30;99.90
11944;DHT22;6031;50.220;10.122;2022-07-23T01:50:43;20.20;99.90
11944;DHT22;6031;50.220;10.122;2022-07-23T01:53:08;20.00;99.90
11944;DHT22;6031;50.220;10.122;2022-07-23T01:55:34;20.00;99.90
11944;DHT22;6031;50.220;10.122;2022-07-23T01:57:59;20.10;99.90
11944;DHT22;6031;50.220;10.122;2022-07-23T02:00:25;20.30;99.90
11944;DHT22;6031;50.220;10.122;2022-07-23T02:02:51;20.30;99.90
11944;DHT22;6031;50.220;10.122;2022-07-23T02:05:16;20.30;99.90
11944;DHT22;6031;50.220;10.122;2022-07-23T02:07:42;20.40;99.90
11944;DHT22;6031;50.220;10.122;2022-07-23T02:10:07;20.40;99.90
11944;DHT22;6031;50.220;10.122;2022-07-23T02:12:33;20.40;99.90
11944;DHT22;6031;50.220;10.122;2022-07-23T02:14:59;20.50;99.90
11944;DHT22;6031;50.220;10.122;2022-07-23T02:17:24;20.40;99.90
11944;DHT22;6031;50.220;10.122;2022-07-23T02:19:50;20.20;99.90
11944;DHT22;6031;50.220;10.122;2022-07-23T02:22:15;20.10;99.90
11944;DHT22;6031;50.220;10.122;2022-07-23T02:24:41;20.10;99.90
11944;DHT22;6031;50.220;10.122;2022-07-23T02:27:06;20.10;99.90
11944;DHT22;6031;50.220;10.122;2022-07-23T02:29:32;20.00;99.90
11944;DHT22;6031;50.220;10.122;2022-07-23T02:31:57;20.00;99.90
11944;DHT22;6031;50.220;10.122;2022-07-23T02:34:23;20.00;99.90
11944;DHT22;6031;50.220;10.122;2022-07-23T02:36:48;19.90;99.90
11944;DHT22;6031;50.220;10.122;2022-07-23T02:39:14;19.90;99.90
11944;DHT22;6031;50.220;10.122;2022-07-23T02:41:39;19.80;99.90
11944;DHT22;6031;50.220;10.122;2022-07-23T02:44:06;19.80;99.90
11944;DHT22;6031;50.220;10.122;2022-07-23T02:46:31;19.90;99.90
11944;DHT22;6031;50.220;10.122;2022-07-23T02:48:56;19.80;99.90
11944;DHT22;6031;50.220;10.122;2022-07-23T02:51:22;19.70;99.90
11944;DHT22;6031;50.220;10.122;2022-07-23T02:53:48;19.60;99.90
11944;DHT22;6031;50.220;10.122;2022-07-23T02:56:13;19.50;99.90
11944;DHT22;6031;50.220;10.122;2022-07-23T02:58:38;19.30;99.90
11944;DHT22;6031;50.220;10.122;2022-07-23T03:01:04;19.30;99.90
11944;DHT22;6031;50.220;10.122;2022-07-23T03:03:30;19.30;99.90
11944;DHT22;6031;50.220;10.122;2022-07-23T03:05:55;19.20;99.90
11944;DHT22;6031;50.220;10.122;2022-07-23T03:08:21;19.20;99.90
11944;DHT22;6031;50.220;10.122;2022-07-23T03:10:46;19.20;99.90
11944;DHT22;6031;50.220;10.122;2022-07-23T03:13:12;19.20;99.90
11944;DHT22;6031;50.220;10.122;2022-07-23T03:15:37;19.30;99.90
11944;DHT22;6031;50.220;10.122;2022-07-23T03:18:03;19.30;99.90
11944;DHT22;6031;50.220;10.122;2022-07-23T03:20:28;19.30;99.90
11944;DHT22;6031;50.220;10.122;2022-07-23T03:22:54;19.30;99.90
11944;DHT22;6031;50.220;10.122;2022-07-23T03:25:19;19.30;99.90
11944;DHT22;6031;50.220;10.122;2022-07-23T03:27:45;19.30;99.90
11944;DHT22;6031;50.220;10.122;2022-07-23T03:30:11;19.30;99.90
11944;DHT22;6031;50.220;10.122;2022-07-23T03:32:37;19.30;99.90
11944;DHT22;6031;50.220;10.122;2022-07-23T03:35:03;19.30;99.90
11944;DHT22;6031;50.220;10.122;2022-07-23T03:37:28;19.40;99.90
11944;DHT22;6031;50.220;10.122;2022-07-23T03:39:54;19.50;99.90
11944;DHT22;6031;50.220;10.122;2022-07-23T03:42:20;19.40;99.90
11944;DHT22;6031;50.220;10.122;2022-07-23T03:44:45;19.30;99.90
11944;DHT22;6031;50.220;10.122;2022-07-23T03:47:11;19.20;99.90
11944;DHT22;6031;50.220;10.122;2022-07-23T03:49:36;19.30;99.90
11944;DHT22;6031;50.220;10.122;2022-07-23T03:52:02;19.20;99.90
11944;DHT22;6031;50.220;10.122;2022-07-23T03:54:27;19.20;99.90
11944;DHT22;6031;50.220;10.122;2022-07-23T03:56:53;19.20;99.90
11944;DHT22;6031;50.220;10.122;2022-07-23T03:59:19;19.30;99.90
11944;DHT22;6031;50.220;10.122;2022-07-23T04:01:44;19.30;99.90
11944;DHT22;6031;50.220;10.122;2022-07-23T04:04:10;19.30;99.90
11944;DHT22;6031;50.220;10.122;2022-07-23T04:06:35;19.40;99.90
11944;DHT22;6031;50.220;10.122;2022-07-23T04:09:01;19.50;99.90
11944;DHT22;6031;50.220;10.122;2022-07-23T04:11:27;19.50;99.90
11944;DHT22;6031;50.220;10.122;2022-07-23T04:13:53;19.70;99.90
11944;DHT22;6031;50.220;10.122;2022-07-23T04:16:18;19.60;99.90
11944;DHT22;6031;50.220;10.122;2022-07-23T04:18:44;19.60;99.90
11944;DHT22;6031;50.220;10.122;2022-07-23T04:21:09;19.70;99.90
11944;DHT22;6031;50.220;10.122;2022-07-23T04:23:35;19.70;99.90
11944;DHT22;6031;50.220;10.122;2022-07-23T04:26:00;19.80;99.90
11944;DHT22;6031;50.220;10.122;2022-07-23T04:28:26;19.80;99.90
11944;DHT22;6031;50.220;10.122;2022-07-23T04:30:51;19.90;99.90
11944;DHT22;6031;50.220;10.122;2022-07-23T04:33:17;19.90;99.90
11944;DHT22;6031;50.220;10.122;2022-07-23T04:35:43;20.00;99.90
11944;DHT22;6031;50.220;10.122;2022-07-23T04:38:08;20.00;99.90
11944;DHT22;6031;50.220;10.122;2022-07-23T04:40:34;20.10;99.90
11944;DHT22;6031;50.220;10.122;2022-07-23T04:42:59;20.10;99.90
11944;DHT22;6031;50.220;10.122;2022-07-23T04:45:25;20.10;99.90
11944;DHT22;6031;50.220;10.122;2022-07-23T04:47:51;20.00;99.90
11944;DHT22;6031;50.220;10.122;2022-07-23T04:50:16;19.90;99.90
11944;DHT22;6031;50.220;10.122;2022-07-23T04:52:47;19.80;99.90
11944;DHT22;6031;50.220;10.122;2022-07-23T04:55:13;19.80;99.90
11944;DHT22;6031;50.220;10.122;2022-07-23T04:57:39;19.70;99.90
11944;DHT22;6031;50.220;10.122;2022-07-23T05:00:05;19.70;99.90
11944;DHT22;6031;50.220;10.122;2022-07-23T05:02:30;19.60;99.90
11944;DHT22;6031;50.220;10.122;2022-07-23T05:04:56;19.50;99.90
11944;DHT22;6031;50.220;10.122;2022-07-23T05:07:22;19.60;99.90
11944;DHT22;6031;50.220;10.122;2022-07-23T05:09:47;19.80;99.90
11944;DHT22;6031;50.220;10.122;2022-07-23T05:12:13;19.80;99.90
11944;DHT22;6031;50.220;10.122;2022-07-23T05:14:38;19.90;99.90
11944;DHT22;6031;50.220;10.122;2022-07-23T05:17:04;19.90;99.90
11944;DHT22;6031;50.220;10.122;2022-07-23T05:19:30;19.90;99.90
11944;DHT22;6031;50.220;10.122;2022-07-23T05:21:56;20.00;99.90
11944;DHT22;6031;50.220;10.122;2022-07-23T05:24:21;19.80;99.90
11944;DHT22;6031;50.220;10.122;2022-07-23T05:26:47;19.90;99.90
11944;DHT22;6031;50.220;10.122;2022-07-23T05:29:12;20.00;99.90
11944;DHT22;6031;50.220;10.122;2022-07-23T05:31:38;20.10;99.90
11944;DHT22;6031;50.220;10.122;2022-07-23T05:34:03;20.20;99.90
11944;DHT22;6031;50.220;10.122;2022-07-23T05:36:31;20.30;99.90
11944;DHT22;6031;50.220;10.122;2022-07-23T05:38:56;20.30;99.90
11944;DHT22;6031;50.220;10.122;2022-07-23T05:41:22;20.40;99.90
11944;DHT22;6031;50.220;10.122;2022-07-23T05:43:47;20.50;99.90
11944;DHT22;6031;50.220;10.122;2022-07-23T05:46:13;20.40;99.90
11944;DHT22;6031;50.220;10.122;2022-07-23T05:48:39;20.30;99.90
11944;DHT22;6031;50.220;10.122;2022-07-23T05:51:04;20.30;99.90
11944;DHT22;6031;50.220;10.122;2022-07-23T05:53:32;20.30;99.90
11944;DHT22;6031;50.220;10.122;2022-07-23T05:55:58;20.20;99.90
11944;DHT22;6031;50.220;10.122;2022-07-23T05:58:23;20.20;99.90
11944;DHT22;6031;50.220;10.122;2022-07-23T06:00:49;20.20;99.90
11944;DHT22;6031;50.220;10.122;2022-07-23T06:03:14;20.30;99.90
11944;DHT22;6031;50.220;10.122;2022-07-23T06:05:40;20.30;99.90
11944;DHT22;6031;50.220;10.122;2022-07-23T06:08:05;20.30;99.90
11944;DHT22;6031;50.220;10.122;2022-07-23T06:10:31;20.30;99.90
11944;DHT22;6031;50.220;10.122;2022-07-23T06:12:56;20.50;99.90
11944;DHT22;6031;50.220;10.122;2022-07-23T06:15:22;20.60;99.90
11944;DHT22;6031;50.220;10.122;2022-07-23T06:17:48;20.70;99.90
11944;DHT22;6031;50.220;10.122;2022-07-23T06:20:13;20.80;99.90
11944;DHT22;6031;50.220;10.122;2022-07-23T06:22:39;20.90;99.90
11944;DHT22;6031;50.220;10.122;2022-07-23T06:25:05;21.10;99.90
11944;DHT22;6031;50.220;10.122;2022-07-23T06:27:31;21.10;99.90
11944;DHT22;6031;50.220;10.122;2022-07-23T06:29:56;21.10;99.90
11944;DHT22;6031;50.220;10.122;2022-07-23T06:32:22;21.10;99.90
11944;DHT22;6031;50.220;10.122;2022-07-23T06:34:47;21.10;99.90
11944;DHT22;6031;50.220;10.122;2022-07-23T06:37:13;21.10;99.90
11944;DHT22;6031;50.220;10.122;2022-07-23T06:39:38;21.00;99.90
11944;DHT22;6031;50.220;10.122;2022-07-23T06:42:04;20.90;99.90
11944;DHT22;6031;50.220;10.122;2022-07-23T06:44:29;20.70;99.90
11944;DHT22;6031;50.220;10.122;2022-07-23T06:46:55;20.80;99.90
11944;DHT22;6031;50.220;10.122;2022-07-23T06:49:21;20.90;99.90
11944;DHT22;6031;50.220;10.122;2022-07-23T06:51:46;21.00;99.90
11944;DHT22;6031;50.220;10.122;2022-07-23T06:54:12;21.00;99.90
11944;DHT22;6031;50.220;10.122;2022-07-23T06:56:37;21.20;99.90
11944;DHT22;6031;50.220;10.122;2022-07-23T06:59:03;21.40;99.90
11944;DHT22;6031;50.220;10.122;2022-07-23T07:01:28;21.40;99.90
11944;DHT22;6031;50.220;10.122;2022-07-23T07:03:54;21.60;99.90
11944;DHT22;6031;50.220;10.122;2022-07-23T07:06:20;21.70;99.90
11944;DHT22;6031;50.220;10.122;2022-07-23T07:08:45;21.70;99.90
11944;DHT22;6031;50.220;10.122;2022-07-23T07:11:11;21.50;99.90
11944;DHT22;6031;50.220;10.122;2022-07-23T07:13:37;21.40;99.90
11944;DHT22;6031;50.220;10.122;2022-07-23T07:16:03;21.40;99.90
11944;DHT22;6031;50.220;10.122;2022-07-23T07:18:29;21.50;99.90
11944;DHT22;6031;50.220;10.122;2022-07-23T07:20:56;21.50;99.90
11944;DHT22;6031;50.220;10.122;2022-07-23T07:23:21;21.40;99.90
11944;DHT22;6031;50.220;10.122;2022-07-23T07:25:47;21.50;99.90
11944;DHT22;6031;50.220;10.122;2022-07-23T07:28:13;21.60;99.90
11944;DHT22;6031;50.220;10.122;2022-07-23T07:30:38;21.60;99.90
11944;DHT22;6031;50.220;10.122;2022-07-23T07:33:04;21.60;99.90
11944;DHT22;6031;50.220;10.122;2022-07-23T07:35:29;21.60;99.90
11944;DHT22;6031;50.220;10.122;2022-07-23T07:37:56;21.80;99.90
11944;DHT22;6031;50.220;10.122;2022-07-23T07:40:22;21.80;99.90
11944;DHT22;6031;50.220;10.122;2022-07-23T07:42:49;22.00;99.90
11944;DHT22;6031;50.220;10.122;2022-07-23T07:45:15;22.10;99.90
11944;DHT22;6031;50.220;10.122;2022-07-23T07:47:41;22.40;99.90
11944;DHT22;6031;50.220;10.122;2022-07-23T07:50:07;22.40;99.90
11944;DHT22;6031;50.220;10.122;2022-07-23T07:52:33;22.80;99.90
11944;DHT22;6031;50.220;10.122;2022-07-23T07:55:02;23.00;99.90
11944;DHT22;6031;50.220;10.122;2022-07-23T07:57:27;23.40;99.90
11944;DHT22;6031;50.220;10.122;2022-07-23T07:59:53;23.80;99.90
11944;DHT22;6031;50.220;10.122;2022-07-23T08:02:18;24.20;99.90
11944;DHT22;6031;50.220;10.122;2022-07-23T08:04:44;24.50;99.90
11944;DHT22;6031;50.220;10.122;2022-07-23T08:07:10;24.60;99.90
11944;DHT22;6031;50.220;10.122;2022-07-23T08:09:35;25.00;99.90
11944;DHT22;6031;50.220;10.122;2022-07-23T08:12:01;25.30;99.90
11944;DHT22;6031;50.220;10.122;2022-07-23T08:14:26;26.10;99.90
11944;DHT22;6031;50.220;10.122;2022-07-23T08:16:52;26.80;99.90
11944;DHT22;6031;50.220;10.122;2022-07-23T08:19:18;28.40;99.90
11944;DHT22;6031;50.220;10.122;2022-07-23T08:21:43;29.20;99.90
11944;DHT22;6031;50.220;10.122;2022-07-23T08:24:09;30.10;99.90
11944;DHT22;6031;50.220;10.122;2022-07-23T08:26:34;31.00;99.90
11944;DHT22;6031;50.220;10.122;2022-07-23T08:29:00;30.70;99.90
11944;DHT22;6031;50.220;10.122;2022-07-23T08:31:25;31.30;99.90
11944;DHT22;6031;50.220;10.122;2022-07-23T08:33:51;32.30;99.90
11944;DHT22;6031;50.220;10.122;2022-07-23T08:36:17;32.80;99.90
11944;DHT22;6031;50.220;10.122;2022-07-23T08:38:43;33.30;99.20
11944;DHT22;6031;50.220;10.122;2022-07-23T08:41:09;33.70;98.00
11944;DHT22;6031;50.220;10.122;2022-07-23T08:43:35;33.60;98.00
11944;DHT22;6031;50.220;10.122;2022-07-23T08:46:02;33.40;98.30
11944;DHT22;6031;50.220;10.122;2022-07-23T08:48:33;33.70;97.30
11944;DHT22;6031;50.220;10.122;2022-07-23T08:51:01;32.20;99.00
11944;DHT22;6031;50.220;10.122;2022-07-23T08:53:28;32.50;99.10
11944;DHT22;6031;50.220;10.122;2022-07-23T08:55:56;33.10;97.30
11944;DHT22;6031;50.220;10.122;2022-07-23T08:58:23;33.90;96.10
11944;DHT22;6031;50.220;10.122;2022-07-23T09:00:49;34.20;95.40
11944;DHT22;6031;50.220;10.122;2022-07-23T09:03:23;33.60;95.20
11944;DHT22;6031;50.220;10.122;2022-07-23T09:05:52;32.60;95.90
11944;DHT22;6031;50.220;10.122;2022-07-23T09:08:26;32.60;96.90
11944;DHT22;6031;50.220;10.122;2022-07-23T09:11:00;32.50;96.90
11944;DHT22;6031;50.220;10.122;2022-07-23T09:13:40;31.60;97.40
11944;DHT22;6031;50.220;10.122;2022-07-23T09:18:40;30.10;99.20
11944;DHT22;6031;50.220;10.122;2022-07-23T09:24:00;29.50;99.90
11944;DHT22;6031;50.220;10.122;2022-07-23T09:26:34;29.70;99.90
11944;DHT22;6031;50.220;10.122;2022-07-23T09:29:06;31.00;98.90
11944;DHT22;6031;50.220;10.122;2022-07-23T09:36:42;31.60;97.70
11944;DHT22;6031;50.220;10.122;2022-07-23T09:39:08;32.20;97.30
11944;DHT22;6031;50.220;10.122;2022-07-23T09:41:37;32.80;96.50
11944;DHT22;6031;50.220;10.122;2022-07-23T09:44:19;33.40;95.90
11944;DHT22;6031;50.220;10.122;2022-07-23T09:46:47;33.60;95.40
11944;DHT22;6031;50.220;10.122;2022-07-23T09:49:16;33.90;95.00
11944;DHT22;6031;50.220;10.122;2022-07-23T09:51:54;33.80;95.10
11944;DHT22;6031;50.220;10.122;2022-07-23T09:57:01;35.60;94.10
11944;DHT22;6031;50.220;10.122;2022-07-23T09:59:32;35.50;93.40
11944;DHT22;6031;50.220;10.122;2022-07-23T10:01:59;34.80;93.50
11944;DHT22;6031;50.220;10.122;2022-07-23T10:04:29;34.40;94.60
11944;DHT22;6031;50.220;10.122;2022-07-23T10:06:57;35.60;93.30
11944;DHT22;6031;50.220;10.122;2022-07-23T10:09:26;35.40;93.00
11944;DHT22;6031;50.220;10.122;2022-07-23T10:11:55;34.40;93.10
11944;DHT22;6031;50.220;10.122;2022-07-23T10:14:24;34.10;93.90
11944;DHT22;6031;50.220;10.122;2022-07-23T10:16:50;34.30;91.90
11944;DHT22;6031;50.220;10.122;2022-07-23T10:19:17;34.20;91.60
11944;DHT22;6031;50.220;10.122;2022-07-23T10:21:49;34.60;91.20
11944;DHT22;6031;50.220;10.122;2022-07-23T10:30:04;34.60;92.10
11944;DHT22;6031;50.220;10.122;2022-07-23T10:32:58;34.80;91.30
11944;DHT22;6031;50.220;10.122;2022-07-23T10:35:37;36.00;90.20
11944;DHT22;6031;50.220;10.122;2022-07-23T10:41:02;37.30;84.10
11944;DHT22;6031;50.220;10.122;2022-07-23T10:43:29;36.10;85.60
11944;DHT22;6031;50.220;10.122;2022-07-23T10:45:55;36.10;83.90
11944;DHT22;6031;50.220;10.122;2022-07-23T10:48:23;35.50;83.90
11944;DHT22;6031;50.220;10.122;2022-07-23T10:51:12;35.80;85.00
11944;DHT22;6031;50.220;10.122;2022-07-23T10:53:56;36.30;85.60
11944;DHT22;6031;50.220;10.122;2022-07-23T10:59:21;36.80;82.40
11944;DHT22;6031;50.220;10.122;2022-07-23T11:01:47;36.70;82.30
11944;DHT22;6031;50.220;10.122;2022-07-23T11:04:13;37.10;81.20
11944;DHT22;6031;50.220;10.122;2022-07-23T11:09:29;37.90;77.90
11944;DHT22;6031;50.220;10.122;2022-07-23T11:17:23;36.70;79.40
11944;DHT22;6031;50.220;10.122;2022-07-23T11:25:06;36.40;79.40
11944;DHT22;6031;50.220;10.122;2022-07-23T11:27:43;35.50;81.10
11944;DHT22;6031;50.220;10.122;2022-07-23T11:35:45;36.60;85.90
11944;DHT22;6031;50.220;10.122;2022-07-23T11:38:19;36.70;84.00
11944;DHT22;6031;50.220;10.122;2022-07-23T11:40:48;35.20;86.90
11944;DHT22;6031;50.220;10.122;2022-07-23T11:43:15;34.00;88.20
11944;DHT22;6031;50.220;10.122;2022-07-23T11:45:44;33.30;89.10
11944;DHT22;6031;50.220;10.122;2022-07-23T11:48:26;32.90;90.30
11944;DHT22;6031;50.220;10.122;2022-07-23T11:50:53;32.70;90.30
11944;DHT22;6031;50.220;10.122;2022-07-23T11:53:30;32.20;91.00
11944;DHT22;6031;50.220;10.122;2022-07-23T11:56:08;32.60;90.60
11944;DHT22;6031;50.220;10.122;2022-07-23T11:58:35;33.40;90.10
11944;DHT22;6031;50.220;10.122;2022-07-23T12:01:01;32.80;90.50
11944;DHT22;6031;50.220;10.122;2022-07-23T12:03:27;33.10;90.40
11944;DHT22;6031;50.220;10.122;2022-07-23T12:05:57;33.00;89.90
11944;DHT22;6031;50.220;10.122;2022-07-23T12:08:23;32.70;90.20
11944;DHT22;6031;50.220;10.122;2022-07-23T12:10:49;33.40;90.00
11944;DHT22;6031;50.220;10.122;2022-07-23T12:13:16;33.70;88.60
11944;DHT22;6031;50.220;10.122;2022-07-23T12:15:45;32.60;90.30
11944;DHT22;6031;50.220;10.122;2022-07-23T12:18:14;32.80;89.60
11944;DHT22;6031;50.220;10.122;2022-07-23T12:20:42;32.60;89.70
11944;DHT22;6031;50.220;10.122;2022-07-23T12:23:10;33.50;88.30
11944;DHT22;6031;50.220;10.122;2022-07-23T12:25:44;34.40;85.20
11944;DHT22;6031;50.220;10.122;2022-07-23T12:28:15;33.40;85.90
11944;DHT22;6031;50.220;10.122;2022-07-23T12:30:43;32.90;86.60
11944;DHT22;6031;50.220;10.122;2022-07-23T12:33:11;32.60;86.80
11944;DHT22;6031;50.220;10.122;2022-07-23T12:35:46;32.30;86.90
11944;DHT22;6031;50.220;10.122;2022-07-23T12:38:18;32.70;87.50
11944;DHT22;6031;50.220;10.122;2022-07-23T12:40:48;33.60;84.50
11944;DHT22;6031;50.220;10.122;2022-07-23T12:43:30;33.10;84.60
11944;DHT22;6031;50.220;10.122;2022-07-23T12:46:19;32.60;84.90
11944;DHT22;6031;50.220;10.122;2022-07-23T12:51:21;32.10;84.70
11944;DHT22;6031;50.220;10.122;2022-07-23T12:56:27;32.00;81.40
11944;DHT22;6031;50.220;10.122;2022-07-23T12:58:57;33.10;80.30
11944;DHT22;6031;50.220;10.122;2022-07-23T13:01:25;32.90;80.50
11944;DHT22;6031;50.220;10.122;2022-07-23T13:04:06;33.50;79.90
11944;DHT22;6031;50.220;10.122;2022-07-23T13:06:37;33.90;78.40
11944;DHT22;6031;50.220;10.122;2022-07-23T13:09:05;34.30;77.30
11944;DHT22;6031;50.220;10.122;2022-07-23T13:11:31;34.40;77.40
11944;DHT22;6031;50.220;10.122;2022-07-23T13:13:56;34.50;76.60
11944;DHT22;6031;50.220;10.122;2022-07-23T13:16:22;34.20;77.20
11944;DHT22;6031;50.220;10.122;2022-07-23T13:18:48;33.40;78.40
11944;DHT22;6031;50.220;10.122;2022-07-23T13:21:14;33.10;78.60
11944;DHT22;6031;50.220;10.122;2022-07-23T13:23:39;32.80;79.00
11944;DHT22;6031;50.220;10.122;2022-07-23T13:26:05;32.60;78.40
11944;DHT22;6031;50.220;10.122;2022-07-23T13:28:30;32.10;78.90
11944;DHT22;6031;50.220;10.122;2022-07-23T13:30:57;31.90;80.60
11944;DHT22;6031;50.220;10.122;2022-07-23T13:33:24;31.60;81.70
11944;DHT22;6031;50.220;10.122;2022-07-23T13:35:51;31.90;82.00
11944;DHT22;6031;50.220;10.122;2022-07-23T13:38:18;32.70;80.60
11944;DHT22;6031;50.220;10.122;2022-07-23T13:40:46;33.40;79.90
11944;DHT22;6031;50.220;10.122;2022-07-23T13:43:14;34.20;78.10
11944;DHT22;6031;50.220;10.122;2022-07-23T13:45:41;35.20;74.30
11944;DHT22;6031;50.220;10.122;2022-07-23T13:48:08;34.20;75.90
11944;DHT22;6031;50.220;10.122;2022-07-23T13:50:35;34.50;77.00
11944;DHT22;6031;50.220;10.122;2022-07-23T13:53:06;34.30;76.40
11944;DHT22;6031;50.220;10.122;2022-07-23T13:55:33;33.60;76.80
11944;DHT22;6031;50.220;10.122;2022-07-23T13:57:59;32.60;78.50
11944;DHT22;6031;50.220;10.122;2022-07-23T14:00:25;31.90;79.40
11944;DHT22;6031;50.220;10.122;2022-07-23T14:02:51;32.00;80.50
11944;DHT22;6031;50.220;10.122;2022-07-23T14:05:16;32.70;79.90
11944;DHT22;6031;50.220;10.122;2022-07-23T14:07:42;33.30;78.30
11944;DHT22;6031;50.220;10.122;2022-07-23T14:10:10;33.80;77.10
11944;DHT22;6031;50.220;10.122;2022-07-23T14:12:36;34.40;77.30
11944;DHT22;6031;50.220;10.122;2022-07-23T14:15:03;35.10;75.00
11944;DHT22;6031;50.220;10.122;2022-07-23T14:17:29;35.00;74.30
11944;DHT22;6031;50.220;10.122;2022-07-23T14:19:55;33.60;76.10
11944;DHT22;6031;50.220;10.122;2022-07-23T14:22:20;33.30;76.70
11944;DHT22;6031;50.220;10.122;2022-07-23T14:24:46;33.70;76.30
11944;DHT22;6031;50.220;10.122;2022-07-23T14:27:11;33.70;76.30
11944;DHT22;6031;50.220;10.122;2022-07-23T14:29:37;33.20;77.30
11944;DHT22;6031;50.220;10.122;2022-07-23T14:32:03;32.90;76.90
11944;DHT22;6031;50.220;10.122;2022-07-23T14:34:28;32.90;77.70
11944;DHT22;6031;50.220;10.122;2022-07-23T14:36:54;33.30;76.80
11944;DHT22;6031;50.220;10.122;2022-07-23T14:39:20;33.70;76.70
11944;DHT22;6031;50.220;10.122;2022-07-23T14:41:45;33.60;76.30
11944;DHT22;6031;50.220;10.122;2022-07-23T14:44:11;33.70;74.90
11944;DHT22;6031;50.220;10.122;2022-07-23T14:46:37;33.60;75.20
11944;DHT22;6031;50.220;10.122;2022-07-23T14:49:03;33.00;75.60
11944;DHT22;6031;50.220;10.122;2022-07-23T14:51:28;32.30;77.20
11944;DHT22;6031;50.220;10.122;2022-07-23T14:53:54;31.80;77.80
11944;DHT22;6031;50.220;10.122;2022-07-23T14:56:20;31.40;79.30
11944;DHT22;6031;50.220;10.122;2022-07-23T14:58:45;31.20;79.40
11944;DHT22;6031;50.220;10.122;2022-07-23T15:01:11;31.70;78.10
11944;DHT22;6031;50.220;10.122;2022-07-23T15:03:36;32.10;78.00
11944;DHT22;6031;50.220;10.122;2022-07-23T15:06:02;32.30;77.20
11944;DHT22;6031;50.220;10.122;2022-07-23T15:08:28;32.30;76.50
11944;DHT22;6031;50.220;10.122;2022-07-23T15:10:53;32.10;77.10
11944;DHT22;6031;50.220;10.122;2022-07-23T15:13:19;31.90;77.10
11944;DHT22;6031;50.220;10.122;2022-07-23T15:15:44;31.70;77.60
11944;DHT22;6031;50.220;10.122;2022-07-23T15:18:11;31.50;77.60
11944;DHT22;6031;50.220;10.122;2022-07-23T15:20:37;31.60;77.10
11944;DHT22;6031;50.220;10.122;2022-07-23T15:23:06;31.50;77.20
11944;DHT22;6031;50.220;10.122;2022-07-23T15:25:32;31.40;77.90
11944;DHT22;6031;50.220;10.122;2022-07-23T15:27:58;31.60;78.00
11944;DHT22;6031;50.220;10.122;2022-07-23T15:30:26;31.70;76.80
11944;DHT22;6031;50.220;10.122;2022-07-23T15:32:52;32.00;76.10
11944;DHT22;6031;50.220;10.122;2022-07-23T15:35:19;32.20;75.80
11944;DHT22;6031;50.220;10.122;2022-07-23T15:37:44;32.10;76.00
11944;DHT22;6031;50.220;10.122;2022-07-23T15:40:10;31.80;75.00
11944;DHT22;6031;50.220;10.122;2022-07-23T15:42:36;31.20;75.30
11944;DHT22;6031;50.220;10.122;2022-07-23T15:45:03;31.30;76.50
11944;DHT22;6031;50.220;10.122;2022-07-23T15:47:28;31.20;75.70
11944;DHT22;6031;50.220;10.122;2022-07-23T15:49:54;31.10;75.60
11944;DHT22;6031;50.220;10.122;2022-07-23T15:52:19;30.70;76.00
11944;DHT22;6031;50.220;10.122;2022-07-23T15:54:45;30.80;76.10
11944;DHT22;6031;50.220;10.122;2022-07-23T15:57:10;30.80;76.40
11944;DHT22;6031;50.220;10.122;2022-07-23T15:59:37;30.50;75.60
11944;DHT22;6031;50.220;10.122;2022-07-23T16:02:03;30.10;76.40
11944;DHT22;6031;50.220;10.122;2022-07-23T16:04:28;29.90;77.30
11944;DHT22;6031;50.220;10.122;2022-07-23T16:06:55;29.80;77.60
11944;DHT22;6031;50.220;10.122;2022-07-23T16:09:21;29.80;77.60
11944;DHT22;6031;50.220;10.122;2022-07-23T16:11:46;29.80;77.10
11944;DHT22;6031;50.220;10.122;2022-07-23T16:14:12;29.80;76.70
11944;DHT22;6031;50.220;10.122;2022-07-23T16:16:37;29.90;76.80